Time;durP1;ratioP1;P1;durP2;ratioP2;P2;SDS_P1;SDS_P2;PMS_P1;PMS_P2;Temp;Humidity;BMP_temperature;BMP_pressure;BME280_temperature;BME280_humidity;BME280_pressure;Samples;Min_cycle;Max_cycle;Signal;HPM_P1;HPM_P2
2021/03/29 00:00:08;;;;;;;9.58;4.17;;;;;;;3.04;57.69;98008.34;1751241;81;21151;-83
2021/03/29 00:02:37;;;;;;;7.40;3.70;;;;;;;3.03;57.65;98007.53;1737403;80;21168;-83
2021/03/29 00:05:07;;;;;;;7.65;4.10;;;;;;;3.04;57.71;98013.58;1749972;81;21149;-83
2021/03/29 00:07:35;;;;;;;8.13;3.80;;;;;;;3.02;57.66;98012.97;1732204;82;21160;-83
2021/03/29 00:10:07;;;;;;;8.60;3.67;;;;;;;3.04;57.74;98014.89;1753759;81;21123;-83
2021/03/29 00:12:42;;;;;;;6.65;3.55;;;;;;;3.03;57.81;98019.32;1732358;82;21144;-83
2021/03/29 00:15:18;;;;;;;8.05;3.85;;;;;;;3.01;57.88;98017.91;1733726;82;21131;-83
2021/03/29 00:17:46;;;;;;;7.53;3.58;;;;;;;2.96;57.96;98021.92;1737470;82;21476;-83
2021/03/29 00:20:21;;;;;;;11.33;4.28;;;;;;;2.91;57.95;98017.75;1740993;82;21118;-83
2021/03/29 00:22:50;;;;;;;10.78;4.42;;;;;;;2.92;57.98;98023.80;1737912;82;21526;-83
2021/03/29 00:25:20;;;;;;;7.87;4.28;;;;;;;2.89;58.12;98022.88;1750240;81;21143;-83
2021/03/29 00:27:47;;;;;;;7.22;3.87;;;;;;;2.92;58.08;98020.67;1723233;82;21263;-82
2021/03/29 00:30:20;;;;;;;8.40;3.60;;;;;;;2.94;58.20;98017.36;1732055;81;21150;-83
2021/03/29 00:32:48;;;;;;;6.35;3.72;;;;;;;2.92;58.34;98012.82;1740245;81;21171;-83
2021/03/29 00:35:19;;;;;;;8.98;3.67;;;;;;;2.90;58.43;98010.90;1744586;81;21123;-83
2021/03/29 00:40:32;;;;;;;8.90;3.12;;;;;;;2.94;58.71;98018.66;1809968;78;22603;-82
2021/03/29 00:43:04;;;;;;;9.60;4.08;;;;;;;2.87;58.76;98021.77;1757204;80;21532;-82
2021/03/29 00:45:31;;;;;;;8.95;4.10;;;;;;;2.88;58.61;98027.31;1726943;81;21166;-82
2021/03/29 00:47:58;;;;;;;13.18;4.45;;;;;;;2.95;58.57;98029.45;1685333;85;21171;-82
2021/03/29 00:50:43;;;;;;;8.50;4.25;;;;;;;3.04;58.46;98024.06;1714259;84;21135;-82
2021/03/29 00:53:13;;;;;;;9.38;3.72;;;;;;;3.09;58.35;98026.39;1708701;84;21132;-83
2021/03/29 00:55:43;;;;;;;6.97;3.90;;;;;;;3.13;58.41;98026.33;1696553;84;21187;-83
2021/03/29 00:58:13;;;;;;;8.98;3.42;;;;;;;3.04;58.43;98029.30;1699235;84;21103;-83
2021/03/29 01:00:52;;;;;;;6.37;3.60;;;;;;;2.95;58.59;98036.00;1705357;84;21151;-83
2021/03/29 01:03:26;;;;;;;10.13;4.20;;;;;;;2.89;58.56;98032.05;1714290;84;21162;-83
2021/03/29 01:06:06;;;;;;;7.53;3.35;;;;;;;2.89;58.58;98024.19;1717004;83;21153;-83
2021/03/29 01:08:37;;;;;;;9.13;4.17;;;;;;;2.90;58.62;98029.23;1679231;84;21693;-83
2021/03/29 01:11:08;;;;;;;8.25;3.77;;;;;;;2.87;58.66;98030.94;1727425;81;21519;-83
2021/03/29 01:13:40;;;;;;;9.90;3.80;;;;;;;2.88;58.66;98031.24;1722932;81;21131;-83
2021/03/29 01:16:09;;;;;;;9.93;3.83;;;;;;;2.91;58.70;98030.84;1700959;84;21155;-83
2021/03/29 01:18:38;;;;;;;6.75;3.15;;;;;;;2.88;58.76;98023.39;1702000;84;21143;-83
2021/03/29 01:21:14;;;;;;;12.03;4.37;;;;;;;2.88;58.79;98031.75;1734542;82;21490;-83
2021/03/29 01:23:43;;;;;;;8.18;3.72;;;;;;;2.86;58.73;98031.13;1700180;84;21576;-83
2021/03/29 01:26:37;;;;;;;6.95;3.85;;;;;;;2.80;58.87;98031.39;1709062;83;21122;-83
2021/03/29 01:29:06;;;;;;;7.05;3.50;;;;;;;2.78;59.02;98032.59;1705856;84;21118;-83
2021/03/29 01:31:34;;;;;;;9.03;3.42;;;;;;;2.75;59.20;98034.30;1683187;84;21533;-83
2021/03/29 01:34:02;;;;;;;5.55;3.42;;;;;;;2.74;59.32;98036.11;1688307;84;21189;-83
2021/03/29 01:36:31;;;;;;;5.53;3.35;;;;;;;2.71;59.37;98035.69;1690834;83;21497;-83
2021/03/29 01:39:00;;;;;;;9.40;3.47;;;;;;;2.72;59.51;98041.23;1693774;83;21225;-83
2021/03/29 01:41:30;;;;;;;8.73;3.40;;;;;;;2.74;59.52;98036.11;1720761;83;21142;-83
2021/03/29 01:43:59;;;;;;;7.65;3.55;;;;;;;2.75;59.52;98042.95;1686645;84;21217;-83
2021/03/29 01:46:28;;;;;;;6.53;3.33;;;;;;;2.75;59.45;98040.84;1692782;84;21160;-83
2021/03/29 01:48:56;;;;;;;5.30;3.25;;;;;;;2.75;59.43;98046.08;1700416;84;21178;-83
2021/03/29 01:51:24;;;;;;;7.17;3.22;;;;;;;2.73;59.50;98042.34;1706210;83;21167;-83
2021/03/29 01:53:52;;;;;;;7.37;3.70;;;;;;;2.71;59.60;98041.73;1705575;84;21521;-83
2021/03/29 01:56:19;;;;;;;8.23;4.03;;;;;;;2.71;59.65;98041.73;1704458;84;21154;-83
2021/03/29 01:58:47;;;;;;;8.93;4.55;;;;;;;2.75;59.58;98042.95;1696584;84;21129;-83
2021/03/29 02:01:14;;;;;;;6.47;3.27;;;;;;;2.76;59.63;98049.81;1705263;84;21159;-83
2021/03/29 02:03:43;;;;;;;11.68;4.28;;;;;;;2.78;59.66;98045.69;1730154;82;21639;-83
2021/03/29 02:06:12;;;;;;;7.00;3.45;;;;;;;2.78;59.71;98047.80;1687438;84;21132;-83
2021/03/29 02:08:42;;;;;;;6.60;3.72;;;;;;;2.81;59.75;98037.44;1695533;84;21160;-83
2021/03/29 02:11:10;;;;;;;6.60;3.50;;;;;;;2.82;59.76;98035.96;1705136;82;21131;-83
2021/03/29 02:13:44;;;;;;;6.70;3.73;;;;;;;2.88;59.85;98037.79;1716640;83;21121;-83
2021/03/29 02:16:16;;;;;;;10.18;4.22;;;;;;;2.92;59.73;98032.47;1696266;84;21108;-83
2021/03/29 02:18:53;;;;;;;8.88;4.08;;;;;;;2.96;59.71;98032.91;1724265;82;21529;-83
2021/03/29 02:21:26;;;;;;;8.13;3.72;;;;;;;2.96;59.62;98028.47;1690789;83;21132;-83
2021/03/29 02:23:57;;;;;;;8.10;3.90;;;;;;;2.96;59.68;98025.05;1739567;82;21180;-83
2021/03/29 02:26:28;;;;;;;9.53;4.22;;;;;;;2.95;59.75;98022.09;1728779;82;21645;-83
2021/03/29 02:28:57;;;;;;;10.40;3.92;;;;;;;2.95;59.80;98024.21;1724219;82;21508;-83
2021/03/29 02:31:29;;;;;;;8.88;4.17;;;;;;;2.94;59.88;98019.98;1717112;83;21125;-83
2021/03/29 02:33:59;;;;;;;7.65;3.75;;;;;;;2.93;60.09;98025.41;1692005;84;21129;-83
2021/03/29 02:36:28;;;;;;;8.73;4.05;;;;;;;2.92;59.99;98021.98;1693130;83;21120;-83
2021/03/29 02:38:55;;;;;;;9.83;4.50;;;;;;;2.91;60.06;98017.75;1725326;83;21535;-83
2021/03/29 02:41:27;;;;;;;5.47;2.58;;;;;;;2.95;59.99;98014.23;1674356;83;21519;-83
2021/03/29 02:43:57;;;;;;;8.15;3.22;;;;;;;3.05;59.71;98021.74;1695815;83;21137;-83
2021/03/29 02:46:30;;;;;;;8.33;4.03;;;;;;;3.18;58.98;98013.94;1697874;84;21493;-83
2021/03/29 02:49:02;;;;;;;10.58;3.58;;;;;;;3.35;58.96;98017.81;1696442;84;21159;-83
2021/03/29 02:51:33;;;;;;;9.83;4.20;;;;;;;3.45;58.97;98018.25;1706075;83;21155;-83
2021/03/29 02:54:04;;;;;;;6.75;3.30;;;;;;;3.61;58.44;98017.58;1731720;82;21147;-83
2021/03/29 02:56:39;;;;;;;6.85;3.77;;;;;;;3.66;58.13;98019.93;1749150;82;21147;-83
2021/03/29 02:59:14;;;;;;;7.12;3.62;;;;;;;3.67;57.78;98029.91;1717553;83;21110;-83
2021/03/29 03:01:42;;;;;;;9.50;3.72;;;;;;;3.70;57.77;98015.89;1727676;82;21155;-83
2021/03/29 03:04:15;;;;;;;8.90;4.20;;;;;;;3.69;57.76;98014.28;1690860;83;21137;-83
2021/03/29 03:06:47;;;;;;;7.92;3.25;;;;;;;3.63;57.93;98012.94;1723276;82;21165;-83
2021/03/29 03:09:15;;;;;;;6.50;3.60;;;;;;;3.58;58.05;98010.92;1683002;85;21169;-83
2021/03/29 03:11:47;;;;;;;7.15;3.40;;;;;;;3.54;58.39;98021.02;1715135;82;21498;-83
2021/03/29 03:14:16;;;;;;;6.83;3.80;;;;;;;3.49;58.18;98002.93;1726015;83;21457;-83
2021/03/29 03:16:45;;;;;;;6.05;3.27;;;;;;;3.56;58.18;98023.43;1726248;83;21095;-83
2021/03/29 03:19:12;;;;;;;6.47;3.45;;;;;;;3.57;58.35;98023.23;1726164;83;21066;-83
2021/03/29 03:21:39;;;;;;;6.35;3.52;;;;;;;3.52;58.50;98028.27;1723370;82;21144;-83
2021/03/29 03:24:08;;;;;;;8.83;3.58;;;;;;;3.60;58.55;98019.90;1698010;84;21496;-83
2021/03/29 03:26:35;;;;;;;6.58;2.72;;;;;;;3.63;58.46;98028.67;1706510;84;21139;-83
2021/03/29 03:29:03;;;;;;;9.53;2.87;;;;;;;3.69;58.34;98020.83;1699281;84;21190;-83
2021/03/29 03:31:34;;;;;;;6.87;3.12;;;;;;;3.80;58.15;98027.28;1721892;82;21290;-83
2021/03/29 03:34:01;;;;;;;7.78;3.45;;;;;;;3.84;58.21;98025.90;1721344;82;21138;-83
2021/03/29 03:36:32;;;;;;;5.00;3.17;;;;;;;3.89;57.97;98023.47;1685978;84;21214;-83
2021/03/29 03:38:59;;;;;;;10.18;4.05;;;;;;;3.84;58.23;98020.66;1712801;82;21097;-83
2021/03/29 03:41:33;;;;;;;7.53;3.67;;;;;;;3.73;58.73;98025.17;1716422;82;21111;-83
2021/03/29 03:44:03;;;;;;;7.80;3.62;;;;;;;3.61;59.11;98022.83;1750234;81;21278;-83
2021/03/29 03:46:37;;;;;;;9.03;3.42;;;;;;;3.54;59.46;98031.50;1700902;83;21137;-83
2021/03/29 03:49:12;;;;;;;8.15;3.45;;;;;;;3.53;59.45;98024.64;1734805;82;21492;-83
2021/03/29 03:51:41;;;;;;;12.05;2.95;;;;;;;3.53;59.51;98028.58;1720884;83;21098;-83
2021/03/29 03:54:11;;;;;;;9.03;3.55;;;;;;;3.55;59.67;98030.48;1723764;82;21491;-83
2021/03/29 03:56:39;;;;;;;5.20;2.55;;;;;;;3.61;59.49;98032.00;1728689;83;21147;-83
2021/03/29 03:59:09;;;;;;;9.03;3.72;;;;;;;3.65;59.57;98035.84;1711948;84;21167;-83
2021/03/29 04:01:47;;;;;;;6.25;3.35;;;;;;;3.69;59.45;98027.90;1750514;81;21142;-83
2021/03/29 04:04:14;;;;;;;9.10;3.25;;;;;;;3.66;59.49;98023.02;1711768;82;21096;-83
2021/03/29 04:06:41;;;;;;;8.15;3.62;;;;;;;3.65;59.61;98026.66;1733245;82;21540;-83
2021/03/29 04:09:08;;;;;;;7.20;3.20;;;;;;;3.64;59.48;98018.48;1708612;84;21531;-83
2021/03/29 04:11:36;;;;;;;4.65;3.33;;;;;;;3.65;59.32;98029.28;1706659;84;21142;-83
2021/03/29 04:14:04;;;;;;;8.45;3.33;;;;;;;3.69;59.30;98024.77;1750221;81;21528;-84
2021/03/29 04:16:31;;;;;;;5.12;2.92;;;;;;;3.72;59.17;98028.80;1764290;81;21090;-83
2021/03/29 04:18:58;;;;;;;6.92;2.65;;;;;;;3.74;59.01;98018.41;1763939;81;21123;-83
2021/03/29 04:21:25;;;;;;;4.03;2.30;;;;;;;3.80;58.86;98016.80;1765616;81;21167;-83
2021/03/29 04:23:52;;;;;;;3.87;1.82;;;;;;;3.87;58.65;98028.11;1763044;81;21094;-83
2021/03/29 04:26:19;;;;;;;8.23;3.25;;;;;;;3.92;58.13;98038.00;1777109;81;21491;-83
2021/03/29 04:28:46;;;;;;;6.03;2.95;;;;;;;3.95;58.42;98027.13;1739603;81;21474;-83
2021/03/29 04:31:13;;;;;;;8.75;3.45;;;;;;;3.97;58.87;98035.09;1765525;81;21482;-83
2021/03/29 04:33:40;;;;;;;5.37;2.40;;;;;;;3.99;58.54;98045.39;1755097;81;21516;-83
2021/03/29 04:36:08;;;;;;;6.03;3.52;;;;;;;3.96;58.58;98037.42;1743798;81;21466;-83
2021/03/29 04:38:35;;;;;;;7.00;2.70;;;;;;;3.97;58.58;98053.46;1751311;81;21466;-83
2021/03/29 04:41:02;;;;;;;5.90;2.80;;;;;;;3.96;58.91;98053.16;1765497;80;21494;-83
2021/03/29 04:43:29;;;;;;;7.85;3.80;;;;;;;3.95;58.82;98056.80;1766233;81;21093;-83
2021/03/29 04:45:56;;;;;;;11.18;3.90;;;;;;;3.95;58.81;98056.80;1769531;81;21129;-83
2021/03/29 04:48:23;;;;;;;10.23;3.80;;;;;;;3.99;58.76;98058.00;1747913;81;21188;-83
2021/03/29 04:50:50;;;;;;;5.87;3.45;;;;;;;3.97;58.73;98062.64;1767894;81;21129;-83
2021/03/29 04:53:17;;;;;;;8.15;4.28;;;;;;;4.01;58.66;98057.30;1754494;81;21170;-83
2021/03/29 04:55:44;;;;;;;7.03;3.67;;;;;;;4.08;58.77;98063.84;1765465;81;21087;-83
2021/03/29 04:58:11;;;;;;;8.55;3.55;;;;;;;4.11;58.96;98070.83;1765596;81;21110;-83
2021/03/29 05:00:38;;;;;;;9.10;3.67;;;;;;;4.20;58.49;98066.68;1730285;81;21150;-83
2021/03/29 05:03:05;;;;;;;9.78;4.03;;;;;;;4.28;58.42;98063.36;1699544;84;21134;-83
2021/03/29 05:05:32;;;;;;;8.78;3.67;;;;;;;4.38;58.40;98062.97;1713854;84;21353;-83
2021/03/29 05:07:59;;;;;;;4.53;2.92;;;;;;;4.43;58.16;98072.34;1713817;84;21307;-83
2021/03/29 05:10:26;;;;;;;8.23;3.22;;;;;;;4.45;57.84;98059.82;1713612;84;21134;-83
2021/03/29 05:12:53;;;;;;;3.67;2.47;;;;;;;4.43;58.08;98080.22;1713255;82;21291;-83
2021/03/29 05:15:20;;;;;;;5.20;2.72;;;;;;;4.43;57.75;98060.53;1696879;84;21152;-83
2021/03/29 05:18:06;;;;;;;7.78;3.80;;;;;;;4.43;57.65;98080.22;1707862;84;21139;-83
2021/03/29 05:20:34;;;;;;;5.92;3.00;;;;;;;4.42;57.67;98084.67;1712096;84;21483;-83
2021/03/29 05:23:01;;;;;;;10.60;3.80;;;;;;;4.45;57.83;98080.83;1713599;83;21296;-83
2021/03/29 05:25:28;;;;;;;8.10;3.62;;;;;;;4.50;57.83;98078.39;1707144;84;21124;-83
2021/03/29 05:27:55;;;;;;;7.60;3.42;;;;;;;4.50;57.87;98079.70;1707124;84;21556;-83
2021/03/29 05:30:24;;;;;;;7.22;2.47;;;;;;;4.52;57.67;98075.08;1713794;84;21541;-83
2021/03/29 05:32:51;;;;;;;6.92;3.08;;;;;;;4.58;57.31;98077.39;1708286;84;21543;-83
2021/03/29 05:35:18;;;;;;;6.47;3.58;;;;;;;4.63;57.23;98072.32;1722433;81;21141;-83
2021/03/29 05:37:45;;;;;;;7.15;3.52;;;;;;;4.68;57.49;98077.79;1708128;83;21234;-83
2021/03/29 05:40:17;;;;;;;6.92;3.45;;;;;;;4.71;57.60;98075.55;1725800;82;21139;-83
2021/03/29 05:42:44;;;;;;;7.78;4.05;;;;;;;4.77;57.40;98069.47;1729344;81;21134;-84
2021/03/29 05:45:12;;;;;;;6.62;3.83;;;;;;;4.85;57.81;98079.47;1728148;82;21123;-83
2021/03/29 05:47:41;;;;;;;8.15;4.00;;;;;;;4.93;57.67;98073.50;1717922;82;21158;-83
2021/03/29 05:50:13;;;;;;;6.55;3.15;;;;;;;5.06;57.72;98067.38;1731388;82;21167;-83
2021/03/29 05:52:41;;;;;;;6.00;3.40;;;;;;;5.15;57.34;98063.52;1725587;82;21114;-83
2021/03/29 05:55:13;;;;;;;7.30;3.65;;;;;;;5.20;56.88;98066.32;1695683;84;21121;-83
2021/03/29 05:57:52;;;;;;;7.17;2.75;;;;;;;5.16;56.66;98065.13;1683606;84;21163;-83
2021/03/29 06:00:42;;;;;;;8.65;3.60;;;;;;;5.19;56.92;98055.50;1733198;82;21494;-83
2021/03/29 06:03:29;;;;;;;5.78;3.08;;;;;;;5.20;56.94;98066.32;1711999;82;21059;-83
2021/03/29 06:06:04;;;;;;;6.70;3.42;;;;;;;5.23;56.88;98060.67;1700625;84;21168;-84
2021/03/29 06:08:34;;;;;;;5.75;3.25;;;;;;;5.31;56.80;98063.56;1722925;82;21067;-83
2021/03/29 06:11:01;;;;;;;6.55;3.50;;;;;;;5.35;56.92;98070.03;1675274;84;21541;-84
2021/03/29 06:13:31;;;;;;;8.93;3.92;;;;;;;5.44;57.10;98068.77;1705220;83;21167;-84
2021/03/29 06:16:11;;;;;;;6.60;3.30;;;;;;;5.52;57.10;98073.80;1714170;83;21183;-83
2021/03/29 06:18:51;;;;;;;6.75;3.62;;;;;;;5.56;56.75;98073.67;1724050;82;21123;-84
2021/03/29 06:21:18;;;;;;;8.40;3.58;;;;;;;5.54;56.68;98082.28;1718105;83;21246;-84
2021/03/29 06:23:59;;;;;;;8.83;4.00;;;;;;;5.58;56.78;98085.30;1708921;84;21499;-83
2021/03/29 06:26:30;;;;;;;7.50;3.62;;;;;;;5.68;56.95;98090.92;1695892;84;21185;-84
2021/03/29 06:28:58;;;;;;;8.30;3.47;;;;;;;5.70;56.02;98095.45;1712924;83;21146;-83
2021/03/29 06:31:34;;;;;;;7.85;3.50;;;;;;;5.67;56.16;98090.63;1691969;83;21501;-84
2021/03/29 06:34:03;;;;;;;5.22;3.20;;;;;;;5.60;56.54;98095.90;1694462;84;21151;-84
2021/03/29 06:36:40;;;;;;;7.17;3.22;;;;;;;5.57;56.52;98095.52;1716176;81;21313;-84
2021/03/29 06:39:18;;;;;;;7.95;3.85;;;;;;;5.55;56.55;98096.24;1725530;83;21126;-83
2021/03/29 06:41:57;;;;;;;8.55;3.70;;;;;;;5.55;56.90;98092.30;1699217;84;21118;-83
2021/03/29 06:44:30;;;;;;;7.50;3.67;;;;;;;5.57;56.51;98093.69;1719784;83;21162;-84
2021/03/29 06:47:14;;;;;;;5.47;3.35;;;;;;;5.57;56.51;98093.69;1733684;83;21518;-84
2021/03/29 06:49:51;;;;;;;6.25;3.52;;;;;;;5.58;56.75;98091.87;1722326;83;21445;-84
2021/03/29 06:52:34;;;;;;;6.62;3.15;;;;;;;5.60;57.02;98105.61;1733244;83;21133;-84
2021/03/29 06:55:26;;;;;;;7.87;3.42;;;;;;;5.62;57.00;98100.95;1754857;81;21282;-84
2021/03/29 06:58:08;;;;;;;3.92;2.85;;;;;;;5.62;56.87;98097.00;1744951;81;21354;-84
2021/03/29 07:00:39;;;;;;;8.45;3.75;;;;;;;5.64;56.76;98100.26;1755154;81;21514;-84
2021/03/29 07:03:09;;;;;;;5.72;3.00;;;;;;;5.65;56.75;98100.55;1759810;81;21570;-84
2021/03/29 07:05:37;;;;;;;9.70;3.50;;;;;;;5.66;56.56;98091.12;1762899;81;21253;-84
2021/03/29 07:08:07;;;;;;;7.97;3.52;;;;;;;5.69;56.97;98093.84;1751245;81;21201;-84
2021/03/29 07:10:34;;;;;;;7.67;3.90;;;;;;;5.77;56.77;98092.78;1757661;81;21247;-84
2021/03/29 07:13:02;;;;;;;9.08;3.70;;;;;;;5.82;57.00;98092.46;1761076;81;21558;-84
2021/03/29 07:15:31;;;;;;;8.63;3.60;;;;;;;5.86;56.87;98097.59;1753283;81;21164;-84
2021/03/29 07:18:00;;;;;;;9.40;4.05;;;;;;;5.95;56.69;98092.92;1727479;83;21491;-84
2021/03/29 07:20:27;;;;;;;6.15;3.67;;;;;;;6.02;56.79;98082.34;1731151;83;21123;-84
2021/03/29 07:22:55;;;;;;;7.12;4.05;;;;;;;6.05;56.76;98084.55;1763165;81;21654;-84
2021/03/29 07:25:36;;;;;;;7.12;3.37;;;;;;;6.07;57.01;98081.22;1760569;81;21140;-84
2021/03/29 07:28:10;;;;;;;6.92;3.17;;;;;;;6.12;57.35;98078.23;1736198;81;21169;-84
2021/03/29 07:30:54;;;;;;;9.45;4.15;;;;;;;6.16;56.98;98065.44;1730925;83;21097;-85
2021/03/29 07:33:23;;;;;;;8.43;4.40;;;;;;;6.17;56.95;98081.02;1733011;83;21263;-84
2021/03/29 07:35:57;;;;;;;9.80;4.25;;;;;;;6.22;56.79;98083.03;1728011;82;21318;-84
2021/03/29 07:38:26;;;;;;;9.08;4.30;;;;;;;6.28;56.67;98086.63;1709941;83;21279;-84
2021/03/29 07:40:58;;;;;;;10.77;4.47;;;;;;;6.31;56.97;98087.50;1714855;83;21156;-84
2021/03/29 07:43:30;;;;;;;12.30;4.35;;;;;;;6.31;56.54;98088.31;1711653;83;21239;-84
2021/03/29 07:46:04;;;;;;;10.10;4.05;;;;;;;6.34;56.51;98092.37;1734508;83;21577;-84
2021/03/29 07:48:46;;;;;;;6.22;4.40;;;;;;;6.42;56.42;98093.41;1728110;83;21180;-84
2021/03/29 07:51:18;;;;;;;12.47;4.45;;;;;;;6.51;56.08;98091.61;1704325;84;21487;-84
2021/03/29 07:53:53;;;;;;;8.90;5.12;;;;;;;6.57;56.09;98103.11;1734489;83;21439;-84
2021/03/29 07:56:41;;;;;;;12.20;5.37;;;;;;;6.55;56.11;98099.38;1714534;84;21463;-84
2021/03/29 07:59:09;;;;;;;15.10;6.67;;;;;;;6.54;56.19;98096.95;1739876;81;21146;-83
2021/03/29 08:02:03;;;;;;;11.43;5.80;;;;;;;6.59;56.83;98094.98;1715861;83;21191;-83
2021/03/29 08:05:08;;;;;;;13.45;5.83;;;;;;;6.72;56.60;98098.82;1748649;81;21148;-84
2021/03/29 08:07:47;;;;;;;16.80;6.75;;;;;;;6.83;56.43;98098.12;1751077;81;21111;-84
2021/03/29 08:10:17;;;;;;;11.35;5.25;;;;;;;6.90;56.69;98093.60;1768364;81;21073;-84
2021/03/29 08:13:00;;;;;;;9.15;5.42;;;;;;;6.98;56.88;98092.50;1706169;83;21163;-84
2021/03/29 08:16:09;;;;;;;11.00;5.55;;;;;;;7.07;56.66;98092.00;1708495;83;21300;-84
2021/03/29 08:19:14;;;;;;;9.88;5.15;;;;;;;7.21;56.66;98095.81;1703738;84;21505;-82
2021/03/29 08:21:57;;;;;;;11.65;5.15;;;;;;;7.35;56.14;98103.36;1734430;83;21115;-84
2021/03/29 08:24:35;;;;;;;13.58;5.83;;;;;;;7.40;55.92;98108.77;1712757;84;21253;-84
2021/03/29 08:27:08;;;;;;;11.48;4.60;;;;;;;7.42;55.81;98096.67;1749714;81;21139;-84
2021/03/29 08:29:40;;;;;;;11.55;5.60;;;;;;;7.49;55.72;98095.29;1693591;83;21161;-84
2021/03/29 08:32:15;;;;;;;10.80;5.17;;;;;;;7.49;55.39;98104.02;1721052;83;21137;-84
2021/03/29 08:35:06;;;;;;;10.90;5.83;;;;;;;7.43;55.65;98100.41;1710817;84;21107;-84
2021/03/29 08:37:47;;;;;;;13.45;6.30;;;;;;;7.42;55.74;98101.95;1741720;81;21490;-84
2021/03/29 08:40:22;;;;;;;10.90;5.20;;;;;;;7.43;55.89;98103.56;1705534;84;21127;-84
2021/03/29 08:42:53;;;;;;;14.85;5.78;;;;;;;7.47;55.51;98099.47;1719266;82;21346;-84
2021/03/29 08:45:24;;;;;;;13.50;5.87;;;;;;;7.53;55.36;98103.85;1692127;84;21468;-84
2021/03/29 08:47:55;;;;;;;9.30;5.30;;;;;;;7.58;55.56;98097.38;1695841;84;21155;-84
2021/03/29 08:50:28;;;;;;;10.53;5.12;;;;;;;7.64;56.10;98100.47;1733669;82;21460;-84
2021/03/29 08:53:09;;;;;;;11.83;5.58;;;;;;;7.80;55.83;98099.56;1711710;83;21135;-84
2021/03/29 08:55:40;;;;;;;10.82;5.60;;;;;;;7.88;55.57;98104.52;1704921;84;21140;-84
2021/03/29 08:58:09;;;;;;;11.53;5.87;;;;;;;7.97;55.53;98103.98;1696318;84;21159;-84
2021/03/29 09:00:40;;;;;;;11.30;5.62;;;;;;;8.08;55.38;98111.66;1726594;82;21145;-84
2021/03/29 09:03:23;;;;;;;11.25;5.72;;;;;;;8.14;55.28;98105.47;1713809;83;21174;-84
2021/03/29 09:05:50;;;;;;;13.08;5.53;;;;;;;8.22;55.39;98101.20;1711254;83;21151;-84
2021/03/29 09:08:18;;;;;;;10.15;3.98;;;;;;;8.33;55.31;98100.42;1716881;83;21166;-84
2021/03/29 09:10:47;;;;;;;10.10;4.87;;;;;;;8.43;54.71;98103.03;1700612;83;21153;-84
2021/03/29 09:13:17;;;;;;;8.83;5.17;;;;;;;8.55;55.24;98098.05;1726619;82;21165;-84
2021/03/29 09:15:49;;;;;;;9.98;5.55;;;;;;;8.62;54.44;98099.28;1698105;84;21227;-84
2021/03/29 09:18:19;;;;;;;10.48;5.35;;;;;;;8.78;54.89;98105.73;1722022;83;21165;-84
2021/03/29 09:20:49;;;;;;;9.08;4.60;;;;;;;8.86;53.91;98093.47;1729108;83;21156;-84
2021/03/29 09:23:21;;;;;;;11.65;4.72;;;;;;;8.98;54.23;98085.02;1728592;82;21145;-84
2021/03/29 09:25:51;;;;;;;10.63;5.53;;;;;;;9.18;53.73;98083.34;1735592;81;21201;-84
2021/03/29 09:28:33;;;;;;;10.72;5.17;;;;;;;9.40;54.17;98082.19;1742364;81;21155;-84
2021/03/29 09:31:00;;;;;;;15.90;7.25;;;;;;;9.46;53.71;98085.23;1758650;81;21141;-84
2021/03/29 09:33:29;;;;;;;9.05;5.67;;;;;;;9.41;53.87;98084.59;1763066;81;21115;-84
2021/03/29 09:35:57;;;;;;;9.10;4.83;;;;;;;9.43;53.22;98086.52;1768486;81;21257;-84
2021/03/29 09:38:37;;;;;;;11.08;4.83;;;;;;;9.42;53.99;98086.20;1769041;81;21278;-84
2021/03/29 09:41:28;;;;;;;9.38;4.95;;;;;;;9.38;53.74;98091.69;1759658;81;21149;-84
2021/03/29 09:43:58;;;;;;;12.35;5.15;;;;;;;9.35;53.43;98094.00;1759847;81;21212;-84
2021/03/29 09:46:34;;;;;;;9.03;4.20;;;;;;;9.29;53.68;98089.63;1759107;81;21127;-84
2021/03/29 09:49:11;;;;;;;8.40;5.08;;;;;;;9.33;53.25;98088.14;1757117;81;21108;-84
2021/03/29 09:51:41;;;;;;;9.80;4.78;;;;;;;9.19;53.10;98088.40;1759910;81;21499;-84
2021/03/29 09:54:33;;;;;;;10.45;5.15;;;;;;;9.17;54.12;98089.67;1762549;81;21149;-84
2021/03/29 09:59:55;;;;;;;9.75;5.00;;;;;;;9.34;53.65;98089.23;1879825;76;22931;-83
2021/03/29 10:02:29;;;;;;;9.93;4.47;;;;;;;9.29;53.82;98093.11;1831293;77;21130;-84
2021/03/29 10:05:10;;;;;;;10.20;4.47;;;;;;;9.33;54.01;98090.27;1831175;78;21291;-84
2021/03/29 10:07:53;;;;;;;9.38;4.53;;;;;;;9.36;53.96;98089.80;1830921;78;21614;-84
2021/03/29 10:10:32;;;;;;;8.73;4.85;;;;;;;9.37;53.91;98087.44;1828661;78;21145;-84
2021/03/29 10:13:09;;;;;;;10.05;5.50;;;;;;;9.40;54.09;98086.16;1837952;77;21131;-84
2021/03/29 10:15:39;;;;;;;8.05;4.78;;;;;;;9.32;53.95;98082.57;1861187;77;21098;-85
2021/03/29 10:18:15;;;;;;;13.78;4.92;;;;;;;9.25;53.94;98087.97;1801695;80;21157;-84
2021/03/29 10:20:45;;;;;;;10.88;4.83;;;;;;;9.27;54.24;98083.25;1776330;79;21131;-85
2021/03/29 10:23:31;;;;;;;6.95;4.12;;;;;;;9.29;53.56;98082.52;1776152;79;21253;-84
2021/03/29 10:26:20;;;;;;;12.13;6.00;;;;;;;9.34;54.25;98076.00;1794316;79;21560;-84
2021/03/29 10:28:58;;;;;;;13.22;5.33;;;;;;;9.42;54.31;98073.49;1769821;81;21615;-84
2021/03/29 10:31:28;;;;;;;10.58;4.97;;;;;;;9.47;54.06;98070.44;1765623;81;21112;-84
2021/03/29 10:33:57;;;;;;;8.60;4.43;;;;;;;9.54;54.14;98070.30;1766919;80;21175;-84
2021/03/29 10:36:27;;;;;;;12.45;5.62;;;;;;;9.59;53.68;98074.91;1775654;79;21274;-84
2021/03/29 10:38:56;;;;;;;10.50;5.50;;;;;;;9.64;54.22;98065.72;1785174;79;21115;-84
2021/03/29 10:41:25;;;;;;;9.25;5.05;;;;;;;9.74;54.07;98060.10;1761757;81;21292;-84
2021/03/29 10:43:52;;;;;;;11.55;5.08;;;;;;;9.84;53.52;98055.48;1761672;81;21192;-84
2021/03/29 10:46:19;;;;;;;10.13;5.20;;;;;;;9.92;53.46;98060.94;1761848;81;21279;-84
2021/03/29 10:48:47;;;;;;;9.43;4.87;;;;;;;9.98;53.09;98063.95;1761855;81;21525;-84
2021/03/29 10:51:14;;;;;;;12.03;5.60;;;;;;;10.05;53.20;98055.34;1761764;81;21276;-84
2021/03/29 10:53:41;;;;;;;11.57;5.20;;;;;;;10.20;53.40;98059.58;1761741;81;21514;-84
2021/03/29 10:56:08;;;;;;;8.18;4.85;;;;;;;10.34;52.99;98056.12;1761800;81;21292;-84
2021/03/29 10:58:36;;;;;;;10.65;5.62;;;;;;;10.42;52.48;98058.38;1762008;81;21213;-84
2021/03/29 11:01:03;;;;;;;10.88;5.58;;;;;;;10.58;52.73;98060.74;1762418;80;21185;-84
2021/03/29 11:03:31;;;;;;;11.57;5.47;;;;;;;10.74;52.10;98054.61;1762417;81;21156;-84
2021/03/29 11:05:58;;;;;;;11.18;5.45;;;;;;;10.85;51.85;98050.27;1762441;81;21223;-84
2021/03/29 11:08:25;;;;;;;11.08;5.50;;;;;;;11.00;51.60;98048.63;1762025;81;21623;-84
2021/03/29 11:10:52;;;;;;;9.28;5.05;;;;;;;11.13;51.48;98050.12;1761838;81;21644;-84
2021/03/29 11:13:20;;;;;;;9.93;5.15;;;;;;;11.26;50.85;98045.77;1761410;81;21513;-84
2021/03/29 11:15:47;;;;;;;10.23;4.87;;;;;;;11.42;51.35;98053.39;1761450;81;21164;-85
2021/03/29 11:18:14;;;;;;;8.53;4.60;;;;;;;11.69;50.87;98050.77;1761821;81;21283;-84
2021/03/29 11:20:41;;;;;;;9.48;4.72;;;;;;;11.93;50.85;98046.50;1761401;81;21564;-84
2021/03/29 11:23:09;;;;;;;11.15;5.03;;;;;;;11.98;50.07;98046.57;1782899;80;21482;-84
2021/03/29 11:25:36;;;;;;;9.03;4.28;;;;;;;12.09;50.02;98040.27;1777770;80;21484;-84
2021/03/29 11:28:04;;;;;;;11.55;4.95;;;;;;;12.25;49.70;98042.56;1759769;79;21130;-84
2021/03/29 11:30:31;;;;;;;11.10;4.12;;;;;;;12.29;49.99;98044.45;1780422;79;21141;-85
2021/03/29 11:32:59;;;;;;;9.73;4.62;;;;;;;12.34;49.41;98037.03;1771837;79;21519;-85
2021/03/29 11:35:26;;;;;;;13.20;4.50;;;;;;;12.27;47.78;98040.45;1763367;79;21126;-85
2021/03/29 11:37:53;;;;;;;9.55;4.50;;;;;;;12.04;49.12;98041.56;1779855;81;21198;-84
2021/03/29 11:40:21;;;;;;;10.95;4.40;;;;;;;12.08;49.46;98040.00;1795099;79;21143;-85
2021/03/29 11:42:48;;;;;;;8.65;4.17;;;;;;;12.16;49.22;98039.55;1780457;79;21274;-85
2021/03/29 11:45:15;;;;;;;8.70;4.58;;;;;;;12.23;49.23;98034.81;1779434;79;21125;-84
2021/03/29 11:47:42;;;;;;;7.47;3.77;;;;;;;12.16;48.50;98033.70;1761330;81;21196;-84
2021/03/29 11:50:11;;;;;;;8.28;4.70;;;;;;;12.08;47.49;98035.48;1763487;80;21142;-84
2021/03/29 11:52:39;;;;;;;7.12;4.03;;;;;;;12.11;48.37;98030.21;1765441;80;21190;-84
2021/03/29 11:55:08;;;;;;;9.20;4.70;;;;;;;12.13;49.04;98024.11;1780273;80;21099;-85
2021/03/29 11:57:35;;;;;;;10.13;4.30;;;;;;;12.15;48.32;98025.98;1778734;80;21440;-84
2021/03/29 12:00:07;;;;;;;9.98;4.37;;;;;;;12.18;48.25;98022.81;1791951;80;21091;-84
2021/03/29 12:02:37;;;;;;;10.08;4.28;;;;;;;12.24;48.38;98022.31;1779900;80;21177;-84
2021/03/29 12:05:09;;;;;;;6.87;4.12;;;;;;;12.30;48.17;98022.12;1786595;79;21139;-84